sensor_id;sensor_type;location;lat;lon;timestamp;temperature;humidity
13488;DHT22;6816;48.506;9.050;2023-07-13T00:00:31;22.50;90.10
13488;DHT22;6816;48.506;9.050;2023-07-13T00:03:32;22.40;90.10
13488;DHT22;6816;48.506;9.050;2023-07-13T00:06:35;22.40;90.10
13488;DHT22;6816;48.506;9.050;2023-07-13T00:09:35;22.30;90.20
13488;DHT22;6816;48.506;9.050;2023-07-13T00:12:37;22.30;90.20
13488;DHT22;6816;48.506;9.050;2023-07-13T00:15:38;22.30;90.10
13488;DHT22;6816;48.506;9.050;2023-07-13T00:18:39;22.20;90.40
13488;DHT22;6816;48.506;9.050;2023-07-13T00:21:40;22.20;90.40
13488;DHT22;6816;48.506;9.050;2023-07-13T00:24:41;22.10;90.40
13488;DHT22;6816;48.506;9.050;2023-07-13T00:27:43;22.10;90.30
13488;DHT22;6816;48.506;9.050;2023-07-13T00:30:44;22.10;90.40
13488;DHT22;6816;48.506;9.050;2023-07-13T00:33:45;22.10;90.40
13488;DHT22;6816;48.506;9.050;2023-07-13T00:36:45;22.00;90.40
13488;DHT22;6816;48.506;9.050;2023-07-13T00:39:46;22.00;90.40
13488;DHT22;6816;48.506;9.050;2023-07-13T00:42:46;22.00;90.40
13488;DHT22;6816;48.506;9.050;2023-07-13T00:48:49;22.00;90.30
13488;DHT22;6816;48.506;9.050;2023-07-13T00:51:55;21.90;90.30
13488;DHT22;6816;48.506;9.050;2023-07-13T00:54:57;22.00;89.90
13488;DHT22;6816;48.506;9.050;2023-07-13T00:57:58;22.00;90.30
13488;DHT22;6816;48.506;9.050;2023-07-13T01:00:59;21.90;90.30
13488;DHT22;6816;48.506;9.050;2023-07-13T01:04:00;21.90;90.40
13488;DHT22;6816;48.506;9.050;2023-07-13T01:07:00;21.90;90.50
13488;DHT22;6816;48.506;9.050;2023-07-13T01:10:01;21.90;90.50
13488;DHT22;6816;48.506;9.050;2023-07-13T01:13:01;21.80;90.60
13488;DHT22;6816;48.506;9.050;2023-07-13T01:16:13;21.80;90.50
13488;DHT22;6816;48.506;9.050;2023-07-13T01:22:39;21.70;88.60
13488;DHT22;6816;48.506;9.050;2023-07-13T01:25:40;21.60;90.20
13488;DHT22;6816;48.506;9.050;2023-07-13T01:28:40;21.60;90.30
13488;DHT22;6816;48.506;9.050;2023-07-13T01:31:41;21.50;90.60
13488;DHT22;6816;48.506;9.050;2023-07-13T01:34:42;21.50;90.30
13488;DHT22;6816;48.506;9.050;2023-07-13T01:37:42;21.50;90.30
13488;DHT22;6816;48.506;9.050;2023-07-13T01:40:45;21.50;90.20
13488;DHT22;6816;48.506;9.050;2023-07-13T01:43:46;21.40;90.20
13488;DHT22;6816;48.506;9.050;2023-07-13T01:46:46;21.40;90.10
13488;DHT22;6816;48.506;9.050;2023-07-13T01:49:47;21.40;90.20
13488;DHT22;6816;48.506;9.050;2023-07-13T01:52:47;21.30;90.50
13488;DHT22;6816;48.506;9.050;2023-07-13T01:55:48;21.30;90.20
13488;DHT22;6816;48.506;9.050;2023-07-13T01:58:49;21.20;90.10
13488;DHT22;6816;48.506;9.050;2023-07-13T02:01:49;21.10;90.00
13488;DHT22;6816;48.506;9.050;2023-07-13T02:04:50;21.10;90.20
13488;DHT22;6816;48.506;9.050;2023-07-13T02:07:51;21.00;90.10
13488;DHT22;6816;48.506;9.050;2023-07-13T02:10:53;21.00;90.20
13488;DHT22;6816;48.506;9.050;2023-07-13T02:13:53;20.90;90.40
13488;DHT22;6816;48.506;9.050;2023-07-13T02:16:54;20.90;90.40
13488;DHT22;6816;48.506;9.050;2023-07-13T02:19:55;20.80;90.70
13488;DHT22;6816;48.506;9.050;2023-07-13T02:22:55;20.80;90.30
13488;DHT22;6816;48.506;9.050;2023-07-13T02:25:57;20.70;90.30
13488;DHT22;6816;48.506;9.050;2023-07-13T02:28:58;20.70;90.30
13488;DHT22;6816;48.506;9.050;2023-07-13T02:31:58;20.60;90.50
13488;DHT22;6816;48.506;9.050;2023-07-13T02:34:59;20.50;90.50
13488;DHT22;6816;48.506;9.050;2023-07-13T02:38:01;20.40;90.50
13488;DHT22;6816;48.506;9.050;2023-07-13T02:41:06;20.30;90.60
13488;DHT22;6816;48.506;9.050;2023-07-13T02:44:07;20.30;90.50
13488;DHT22;6816;48.506;9.050;2023-07-13T02:47:08;20.20;90.80
13488;DHT22;6816;48.506;9.050;2023-07-13T02:50:09;20.10;90.70
13488;DHT22;6816;48.506;9.050;2023-07-13T02:53:10;20.00;90.60
13488;DHT22;6816;48.506;9.050;2023-07-13T02:56:10;19.90;90.60
13488;DHT22;6816;48.506;9.050;2023-07-13T02:59:11;19.90;90.70
13488;DHT22;6816;48.506;9.050;2023-07-13T03:02:12;19.80;90.70
13488;DHT22;6816;48.506;9.050;2023-07-13T03:05:13;19.70;91.10
13488;DHT22;6816;48.506;9.050;2023-07-13T03:08:15;19.60;90.90
13488;DHT22;6816;48.506;9.050;2023-07-13T03:11:18;19.50;91.00
13488;DHT22;6816;48.506;9.050;2023-07-13T03:14:19;19.50;91.10
13488;DHT22;6816;48.506;9.050;2023-07-13T03:17:19;19.40;91.20
13488;DHT22;6816;48.506;9.050;2023-07-13T03:20:20;19.40;91.40
13488;DHT22;6816;48.506;9.050;2023-07-13T03:23:21;19.30;91.50
13488;DHT22;6816;48.506;9.050;2023-07-13T03:26:22;19.30;91.50
13488;DHT22;6816;48.506;9.050;2023-07-13T03:29:23;19.30;91.50
13488;DHT22;6816;48.506;9.050;2023-07-13T03:32:23;19.20;91.50
13488;DHT22;6816;48.506;9.050;2023-07-13T03:35:24;19.10;91.50
13488;DHT22;6816;48.506;9.050;2023-07-13T03:38:24;19.10;91.70
13488;DHT22;6816;48.506;9.050;2023-07-13T03:41:27;19.10;91.70
13488;DHT22;6816;48.506;9.050;2023-07-13T03:44:27;19.10;91.90
13488;DHT22;6816;48.506;9.050;2023-07-13T03:47:28;19.00;92.00
13488;DHT22;6816;48.506;9.050;2023-07-13T03:50:29;19.00;92.10
13488;DHT22;6816;48.506;9.050;2023-07-13T03:53:29;19.00;92.20
13488;DHT22;6816;48.506;9.050;2023-07-13T03:56:30;19.00;92.40
13488;DHT22;6816;48.506;9.050;2023-07-13T03:59:33;18.90;92.50
13488;DHT22;6816;48.506;9.050;2023-07-13T04:02:34;18.90;92.60
13488;DHT22;6816;48.506;9.050;2023-07-13T04:05:34;18.90;92.70
13488;DHT22;6816;48.506;9.050;2023-07-13T04:08:36;19.00;92.80
13488;DHT22;6816;48.506;9.050;2023-07-13T04:11:37;19.00;92.80
13488;DHT22;6816;48.506;9.050;2023-07-13T04:14:38;19.00;92.90
13488;DHT22;6816;48.506;9.050;2023-07-13T04:17:39;19.00;92.90
13488;DHT22;6816;48.506;9.050;2023-07-13T04:20:39;19.10;93.40
13488;DHT22;6816;48.506;9.050;2023-07-13T04:23:40;19.00;93.00
13488;DHT22;6816;48.506;9.050;2023-07-13T04:26:41;19.00;92.90
13488;DHT22;6816;48.506;9.050;2023-07-13T04:29:41;19.10;92.90
13488;DHT22;6816;48.506;9.050;2023-07-13T04:32:42;19.00;92.90
13488;DHT22;6816;48.506;9.050;2023-07-13T04:35:45;19.00;92.80
13488;DHT22;6816;48.506;9.050;2023-07-13T04:38:49;19.00;92.60
13488;DHT22;6816;48.506;9.050;2023-07-13T04:41:49;19.00;92.80
13488;DHT22;6816;48.506;9.050;2023-07-13T04:44:51;19.00;92.90
13488;DHT22;6816;48.506;9.050;2023-07-13T04:47:51;19.00;92.90
13488;DHT22;6816;48.506;9.050;2023-07-13T04:50:56;19.00;92.90
13488;DHT22;6816;48.506;9.050;2023-07-13T04:53:57;19.00;92.70
13488;DHT22;6816;48.506;9.050;2023-07-13T04:57:00;19.00;93.00
13488;DHT22;6816;48.506;9.050;2023-07-13T05:00:01;19.00;93.10
13488;DHT22;6816;48.506;9.050;2023-07-13T05:03:06;19.00;93.10
13488;DHT22;6816;48.506;9.050;2023-07-13T05:06:08;19.10;93.30
13488;DHT22;6816;48.506;9.050;2023-07-13T05:09:12;19.10;93.50
13488;DHT22;6816;48.506;9.050;2023-07-13T05:12:13;19.20;93.70
13488;DHT22;6816;48.506;9.050;2023-07-13T05:15:14;19.20;93.80
13488;DHT22;6816;48.506;9.050;2023-07-13T05:18:14;19.20;93.90
13488;DHT22;6816;48.506;9.050;2023-07-13T05:21:15;19.30;94.10
13488;DHT22;6816;48.506;9.050;2023-07-13T05:24:15;19.30;94.20
13488;DHT22;6816;48.506;9.050;2023-07-13T05:27:16;19.40;94.30
13488;DHT22;6816;48.506;9.050;2023-07-13T05:30:17;19.50;94.50
13488;DHT22;6816;48.506;9.050;2023-07-13T05:33:17;19.60;94.60
13488;DHT22;6816;48.506;9.050;2023-07-13T05:36:18;19.70;94.70
13488;DHT22;6816;48.506;9.050;2023-07-13T05:39:19;19.70;94.60
13488;DHT22;6816;48.506;9.050;2023-07-13T05:42:19;19.90;94.60
13488;DHT22;6816;48.506;9.050;2023-07-13T05:45:20;19.90;94.50
13488;DHT22;6816;48.506;9.050;2023-07-13T05:48:21;20.00;94.40
13488;DHT22;6816;48.506;9.050;2023-07-13T05:51:21;20.00;94.40
13488;DHT22;6816;48.506;9.050;2023-07-13T05:54:22;20.10;94.50
13488;DHT22;6816;48.506;9.050;2023-07-13T05:57:22;20.10;94.50
13488;DHT22;6816;48.506;9.050;2023-07-13T06:00:25;20.20;94.50
13488;DHT22;6816;48.506;9.050;2023-07-13T06:03:25;20.30;94.70
13488;DHT22;6816;48.506;9.050;2023-07-13T06:06:26;20.40;94.70
13488;DHT22;6816;48.506;9.050;2023-07-13T06:09:26;20.40;94.60
13488;DHT22;6816;48.506;9.050;2023-07-13T06:12:27;20.50;94.40
13488;DHT22;6816;48.506;9.050;2023-07-13T06:15:28;20.60;94.40
13488;DHT22;6816;48.506;9.050;2023-07-13T06:18:29;20.70;94.70
13488;DHT22;6816;48.506;9.050;2023-07-13T06:21:29;20.80;95.00
13488;DHT22;6816;48.506;9.050;2023-07-13T06:24:30;21.00;94.80
13488;DHT22;6816;48.506;9.050;2023-07-13T06:27:30;21.20;94.90
13488;DHT22;6816;48.506;9.050;2023-07-13T06:30:31;21.50;95.10
13488;DHT22;6816;48.506;9.050;2023-07-13T06:33:32;21.60;94.40
13488;DHT22;6816;48.506;9.050;2023-07-13T06:36:33;21.80;94.50
13488;DHT22;6816;48.506;9.050;2023-07-13T06:39:34;22.00;94.40
13488;DHT22;6816;48.506;9.050;2023-07-13T06:42:34;22.10;94.60
13488;DHT22;6816;48.506;9.050;2023-07-13T06:45:44;22.40;93.90
13488;DHT22;6816;48.506;9.050;2023-07-13T06:48:47;22.50;92.90
13488;DHT22;6816;48.506;9.050;2023-07-13T06:51:48;22.70;93.90
13488;DHT22;6816;48.506;9.050;2023-07-13T06:54:48;22.80;93.20
13488;DHT22;6816;48.506;9.050;2023-07-13T06:57:49;23.10;93.00
13488;DHT22;6816;48.506;9.050;2023-07-13T07:00:52;23.20;92.40
13488;DHT22;6816;48.506;9.050;2023-07-13T07:03:53;23.30;91.70
13488;DHT22;6816;48.506;9.050;2023-07-13T07:06:54;23.50;91.90
13488;DHT22;6816;48.506;9.050;2023-07-13T07:09:54;23.50;91.50
13488;DHT22;6816;48.506;9.050;2023-07-13T07:12:55;23.60;90.60
13488;DHT22;6816;48.506;9.050;2023-07-13T07:15:56;23.70;90.00
13488;DHT22;6816;48.506;9.050;2023-07-13T07:18:57;23.80;88.70
13488;DHT22;6816;48.506;9.050;2023-07-13T07:21:57;23.90;89.40
13488;DHT22;6816;48.506;9.050;2023-07-13T07:24:58;24.00;88.80
13488;DHT22;6816;48.506;9.050;2023-07-13T07:27:58;24.00;87.50
13488;DHT22;6816;48.506;9.050;2023-07-13T07:30:59;24.10;86.70
13488;DHT22;6816;48.506;9.050;2023-07-13T07:34:00;24.20;87.00
13488;DHT22;6816;48.506;9.050;2023-07-13T07:37:01;24.20;85.60
13488;DHT22;6816;48.506;9.050;2023-07-13T07:40:02;24.30;84.80
13488;DHT22;6816;48.506;9.050;2023-07-13T07:43:03;24.30;84.40
13488;DHT22;6816;48.506;9.050;2023-07-13T07:46:03;24.50;84.30
13488;DHT22;6816;48.506;9.050;2023-07-13T07:49:04;24.50;82.90
13488;DHT22;6816;48.506;9.050;2023-07-13T07:52:05;24.60;83.40
13488;DHT22;6816;48.506;9.050;2023-07-13T07:55:06;24.60;83.40
13488;DHT22;6816;48.506;9.050;2023-07-13T07:58:07;24.60;82.10
13488;DHT22;6816;48.506;9.050;2023-07-13T08:01:08;24.60;82.70
13488;DHT22;6816;48.506;9.050;2023-07-13T08:04:09;24.80;81.80
13488;DHT22;6816;48.506;9.050;2023-07-13T08:07:09;24.90;81.30
13488;DHT22;6816;48.506;9.050;2023-07-13T08:10:10;25.00;81.00
13488;DHT22;6816;48.506;9.050;2023-07-13T08:13:11;25.20;80.90
13488;DHT22;6816;48.506;9.050;2023-07-13T08:16:11;25.20;80.20
13488;DHT22;6816;48.506;9.050;2023-07-13T08:19:12;25.30;78.90
13488;DHT22;6816;48.506;9.050;2023-07-13T08:22:13;25.40;78.20
13488;DHT22;6816;48.506;9.050;2023-07-13T08:25:13;25.50;77.30
13488;DHT22;6816;48.506;9.050;2023-07-13T08:28:14;25.50;76.70
13488;DHT22;6816;48.506;9.050;2023-07-13T08:31:14;25.60;75.90
13488;DHT22;6816;48.506;9.050;2023-07-13T08:34:15;25.60;74.60
13488;DHT22;6816;48.506;9.050;2023-07-13T08:37:16;25.60;74.10
13488;DHT22;6816;48.506;9.050;2023-07-13T08:40:19;25.60;73.10
13488;DHT22;6816;48.506;9.050;2023-07-13T08:43:34;25.60;72.40
13488;DHT22;6816;48.506;9.050;2023-07-13T08:46:37;25.70;69.60
13488;DHT22;6816;48.506;9.050;2023-07-13T08:49:39;25.70;73.20
13488;DHT22;6816;48.506;9.050;2023-07-13T08:52:42;25.80;72.90
13488;DHT22;6816;48.506;9.050;2023-07-13T08:55:43;25.80;72.60
13488;DHT22;6816;48.506;9.050;2023-07-13T08:58:47;25.90;72.00
13488;DHT22;6816;48.506;9.050;2023-07-13T09:05:18;26.00;65.80
13488;DHT22;6816;48.506;9.050;2023-07-13T09:08:42;26.10;69.50
13488;DHT22;6816;48.506;9.050;2023-07-13T09:14:53;26.10;71.90
13488;DHT22;6816;48.506;9.050;2023-07-13T09:17:58;26.20;70.30
13488;DHT22;6816;48.506;9.050;2023-07-13T09:21:07;26.30;70.90
13488;DHT22;6816;48.506;9.050;2023-07-13T09:24:31;26.30;68.60
13488;DHT22;6816;48.506;9.050;2023-07-13T09:27:39;26.40;65.30
13488;DHT22;6816;48.506;9.050;2023-07-13T09:33:54;26.60;67.80
13488;DHT22;6816;48.506;9.050;2023-07-13T09:36:54;26.60;70.20
13488;DHT22;6816;48.506;9.050;2023-07-13T09:39:55;26.70;69.80
13488;DHT22;6816;48.506;9.050;2023-07-13T09:42:58;26.80;69.80
13488;DHT22;6816;48.506;9.050;2023-07-13T09:45:58;26.90;70.50
13488;DHT22;6816;48.506;9.050;2023-07-13T09:49:00;27.00;69.90
13488;DHT22;6816;48.506;9.050;2023-07-13T09:52:04;27.10;69.00
13488;DHT22;6816;48.506;9.050;2023-07-13T09:55:30;27.20;68.00
13488;DHT22;6816;48.506;9.050;2023-07-13T09:58:31;27.30;63.20
13488;DHT22;6816;48.506;9.050;2023-07-13T10:01:37;27.40;68.90
13488;DHT22;6816;48.506;9.050;2023-07-13T10:04:38;27.50;65.30
13488;DHT22;6816;48.506;9.050;2023-07-13T10:07:43;27.60;69.20
13488;DHT22;6816;48.506;9.050;2023-07-13T10:10:52;27.70;67.10
13488;DHT22;6816;48.506;9.050;2023-07-13T10:13:58;27.80;65.70
13488;DHT22;6816;48.506;9.050;2023-07-13T10:17:00;27.90;66.90
13488;DHT22;6816;48.506;9.050;2023-07-13T10:20:04;28.00;66.80
13488;DHT22;6816;48.506;9.050;2023-07-13T10:23:12;28.10;66.80
13488;DHT22;6816;48.506;9.050;2023-07-13T10:26:20;28.20;64.60
13488;DHT22;6816;48.506;9.050;2023-07-13T10:29:24;28.30;63.70
13488;DHT22;6816;48.506;9.050;2023-07-13T10:32:26;28.40;65.00
13488;DHT22;6816;48.506;9.050;2023-07-13T10:35:27;28.50;65.20
13488;DHT22;6816;48.506;9.050;2023-07-13T10:38:29;28.50;65.20
13488;DHT22;6816;48.506;9.050;2023-07-13T10:41:34;28.60;65.40
13488;DHT22;6816;48.506;9.050;2023-07-13T10:44:35;28.60;63.30
13488;DHT22;6816;48.506;9.050;2023-07-13T10:47:36;28.70;65.20
13488;DHT22;6816;48.506;9.050;2023-07-13T10:50:37;28.80;63.90
13488;DHT22;6816;48.506;9.050;2023-07-13T10:53:40;28.80;63.60
13488;DHT22;6816;48.506;9.050;2023-07-13T10:56:41;28.90;63.60
13488;DHT22;6816;48.506;9.050;2023-07-13T10:59:43;28.90;63.10
13488;DHT22;6816;48.506;9.050;2023-07-13T11:02:59;29.00;62.40
13488;DHT22;6816;48.506;9.050;2023-07-13T11:06:09;29.00;58.80
13488;DHT22;6816;48.506;9.050;2023-07-13T11:15:33;29.00;62.50
13488;DHT22;6816;48.506;9.050;2023-07-13T11:25:32;29.00;61.50
13488;DHT22;6816;48.506;9.050;2023-07-13T11:28:35;29.00;57.20
13488;DHT22;6816;48.506;9.050;2023-07-13T11:31:36;29.00;61.80
13488;DHT22;6816;48.506;9.050;2023-07-13T11:34:38;29.00;61.40
13488;DHT22;6816;48.506;9.050;2023-07-13T11:37:39;29.00;61.10
13488;DHT22;6816;48.506;9.050;2023-07-13T11:40:41;29.00;60.70
13488;DHT22;6816;48.506;9.050;2023-07-13T11:43:44;29.00;59.80
13488;DHT22;6816;48.506;9.050;2023-07-13T11:46:53;28.90;59.50
13488;DHT22;6816;48.506;9.050;2023-07-13T11:49:55;28.90;58.00
13488;DHT22;6816;48.506;9.050;2023-07-13T11:52:59;28.80;59.10
13488;DHT22;6816;48.506;9.050;2023-07-13T11:56:00;28.80;59.50
13488;DHT22;6816;48.506;9.050;2023-07-13T11:59:06;28.70;59.40
13488;DHT22;6816;48.506;9.050;2023-07-13T12:02:31;28.80;58.30
13488;DHT22;6816;48.506;9.050;2023-07-13T12:05:32;28.80;55.10
13488;DHT22;6816;48.506;9.050;2023-07-13T12:08:40;28.80;59.30
13488;DHT22;6816;48.506;9.050;2023-07-13T12:11:42;28.90;57.10
13488;DHT22;6816;48.506;9.050;2023-07-13T12:14:43;28.90;59.10
13488;DHT22;6816;48.506;9.050;2023-07-13T12:17:45;29.00;58.80
13488;DHT22;6816;48.506;9.050;2023-07-13T12:20:47;29.10;58.50
13488;DHT22;6816;48.506;9.050;2023-07-13T12:23:48;29.20;59.10
13488;DHT22;6816;48.506;9.050;2023-07-13T12:26:53;29.20;58.60
13488;DHT22;6816;48.506;9.050;2023-07-13T12:30:00;29.20;57.50
13488;DHT22;6816;48.506;9.050;2023-07-13T12:33:07;29.30;56.90
13488;DHT22;6816;48.506;9.050;2023-07-13T12:36:12;29.30;56.40
13488;DHT22;6816;48.506;9.050;2023-07-13T12:42:24;29.40;57.20
13488;DHT22;6816;48.506;9.050;2023-07-13T12:45:29;29.30;57.10
13488;DHT22;6816;48.506;9.050;2023-07-13T12:48:38;29.30;57.90
13488;DHT22;6816;48.506;9.050;2023-07-13T12:51:40;29.30;54.70
13488;DHT22;6816;48.506;9.050;2023-07-13T12:54:56;29.30;57.20
13488;DHT22;6816;48.506;9.050;2023-07-13T12:57:58;29.30;54.10
13488;DHT22;6816;48.506;9.050;2023-07-13T13:01:01;29.30;56.90
13488;DHT22;6816;48.506;9.050;2023-07-13T13:04:03;29.30;56.20
13488;DHT22;6816;48.506;9.050;2023-07-13T13:07:09;29.40;56.60
13488;DHT22;6816;48.506;9.050;2023-07-13T13:10:12;29.40;56.40
13488;DHT22;6816;48.506;9.050;2023-07-13T13:13:12;29.40;55.90
13488;DHT22;6816;48.506;9.050;2023-07-13T13:16:49;29.40;56.20
13488;DHT22;6816;48.506;9.050;2023-07-13T13:19:50;29.40;52.90
13488;DHT22;6816;48.506;9.050;2023-07-13T13:22:53;29.40;56.50
13488;DHT22;6816;48.506;9.050;2023-07-13T13:25:54;29.40;56.60
13488;DHT22;6816;48.506;9.050;2023-07-13T13:28:54;29.40;56.30
13488;DHT22;6816;48.506;9.050;2023-07-13T13:31:55;29.40;56.20
13488;DHT22;6816;48.506;9.050;2023-07-13T13:34:56;29.50;56.80
13488;DHT22;6816;48.506;9.050;2023-07-13T13:37:56;29.60;56.70
13488;DHT22;6816;48.506;9.050;2023-07-13T13:40:57;29.70;56.70
13488;DHT22;6816;48.506;9.050;2023-07-13T13:43:57;29.80;56.30
13488;DHT22;6816;48.506;9.050;2023-07-13T13:46:58;29.80;56.10
13488;DHT22;6816;48.506;9.050;2023-07-13T13:49:59;29.80;55.90
13488;DHT22;6816;48.506;9.050;2023-07-13T13:53:00;29.80;55.20
13488;DHT22;6816;48.506;9.050;2023-07-13T13:56:02;29.80;55.10
13488;DHT22;6816;48.506;9.050;2023-07-13T13:59:03;29.80;55.20
13488;DHT22;6816;48.506;9.050;2023-07-13T14:02:22;29.70;54.80
13488;DHT22;6816;48.506;9.050;2023-07-13T14:05:25;29.70;52.60
13488;DHT22;6816;48.506;9.050;2023-07-13T14:08:26;29.60;53.60
13488;DHT22;6816;48.506;9.050;2023-07-13T14:11:27;29.50;55.30
13488;DHT22;6816;48.506;9.050;2023-07-13T14:14:28;29.50;55.40
13488;DHT22;6816;48.506;9.050;2023-07-13T14:17:29;29.50;55.30
13488;DHT22;6816;48.506;9.050;2023-07-13T14:20:31;29.60;55.30
13488;DHT22;6816;48.506;9.050;2023-07-13T14:23:31;29.70;55.60
13488;DHT22;6816;48.506;9.050;2023-07-13T14:26:36;29.70;55.20
13488;DHT22;6816;48.506;9.050;2023-07-13T14:29:38;29.80;54.20
13488;DHT22;6816;48.506;9.050;2023-07-13T14:32:38;29.90;55.60
13488;DHT22;6816;48.506;9.050;2023-07-13T14:35:39;29.90;54.70
13488;DHT22;6816;48.506;9.050;2023-07-13T14:38:40;30.00;54.70
13488;DHT22;6816;48.506;9.050;2023-07-13T14:41:40;30.20;54.80
13488;DHT22;6816;48.506;9.050;2023-07-13T14:44:41;30.30;54.40
13488;DHT22;6816;48.506;9.050;2023-07-13T14:47:42;30.30;53.80
13488;DHT22;6816;48.506;9.050;2023-07-13T14:50:43;30.30;54.00
13488;DHT22;6816;48.506;9.050;2023-07-13T14:53:44;30.30;53.70
13488;DHT22;6816;48.506;9.050;2023-07-13T14:56:44;30.40;53.60
13488;DHT22;6816;48.506;9.050;2023-07-13T14:59:46;30.50;53.10
13488;DHT22;6816;48.506;9.050;2023-07-13T15:02:54;30.50;52.70
13488;DHT22;6816;48.506;9.050;2023-07-13T15:09:33;30.30;54.50
13488;DHT22;6816;48.506;9.050;2023-07-13T15:12:33;30.40;53.80
13488;DHT22;6816;48.506;9.050;2023-07-13T15:15:35;30.50;53.70
13488;DHT22;6816;48.506;9.050;2023-07-13T15:18:36;30.80;54.20
13488;DHT22;6816;48.506;9.050;2023-07-13T15:21:40;31.00;53.90
13488;DHT22;6816;48.506;9.050;2023-07-13T15:24:41;31.20;53.90
13488;DHT22;6816;48.506;9.050;2023-07-13T15:27:41;31.30;53.50
13488;DHT22;6816;48.506;9.050;2023-07-13T15:30:47;31.40;53.70
13488;DHT22;6816;48.506;9.050;2023-07-13T15:33:52;31.40;52.30
13488;DHT22;6816;48.506;9.050;2023-07-13T15:36:53;31.60;52.80
13488;DHT22;6816;48.506;9.050;2023-07-13T15:39:54;31.70;53.00
13488;DHT22;6816;48.506;9.050;2023-07-13T15:42:54;31.90;53.10
13488;DHT22;6816;48.506;9.050;2023-07-13T15:45:55;32.00;52.70
13488;DHT22;6816;48.506;9.050;2023-07-13T15:48:57;32.00;52.00
13488;DHT22;6816;48.506;9.050;2023-07-13T15:51:58;32.00;52.00
13488;DHT22;6816;48.506;9.050;2023-07-13T15:55:00;31.90;51.80
13488;DHT22;6816;48.506;9.050;2023-07-13T15:58:01;31.80;51.40
13488;DHT22;6816;48.506;9.050;2023-07-13T16:01:02;31.60;51.40
13488;DHT22;6816;48.506;9.050;2023-07-13T16:04:02;31.40;51.80
13488;DHT22;6816;48.506;9.050;2023-07-13T16:07:03;31.20;51.80
13488;DHT22;6816;48.506;9.050;2023-07-13T16:10:04;31.10;51.70
13488;DHT22;6816;48.506;9.050;2023-07-13T16:13:05;30.90;51.90
13488;DHT22;6816;48.506;9.050;2023-07-13T16:16:09;30.70;51.70
13488;DHT22;6816;48.506;9.050;2023-07-13T16:19:11;30.50;51.40
13488;DHT22;6816;48.506;9.050;2023-07-13T16:22:17;30.30;52.80
13488;DHT22;6816;48.506;9.050;2023-07-13T16:25:23;30.10;52.60
13488;DHT22;6816;48.506;9.050;2023-07-13T16:28:24;30.00;52.80
13488;DHT22;6816;48.506;9.050;2023-07-13T16:31:29;29.90;54.50
13488;DHT22;6816;48.506;9.050;2023-07-13T16:34:33;30.00;54.30
13488;DHT22;6816;48.506;9.050;2023-07-13T16:37:35;30.00;53.90
13488;DHT22;6816;48.506;9.050;2023-07-13T16:40:37;30.10;54.00
13488;DHT22;6816;48.506;9.050;2023-07-13T16:43:37;30.10;53.70
13488;DHT22;6816;48.506;9.050;2023-07-13T16:46:40;30.00;53.50
13488;DHT22;6816;48.506;9.050;2023-07-13T16:49:42;29.90;53.70
13488;DHT22;6816;48.506;9.050;2023-07-13T16:52:44;29.70;53.20
13488;DHT22;6816;48.506;9.050;2023-07-13T16:55:45;29.60;53.20
13488;DHT22;6816;48.506;9.050;2023-07-13T16:58:46;29.40;53.30
13488;DHT22;6816;48.506;9.050;2023-07-13T17:01:47;29.20;53.50
13488;DHT22;6816;48.506;9.050;2023-07-13T17:04:47;29.10;53.40
13488;DHT22;6816;48.506;9.050;2023-07-13T17:07:48;28.90;54.20
13488;DHT22;6816;48.506;9.050;2023-07-13T17:10:52;28.70;54.20
13488;DHT22;6816;48.506;9.050;2023-07-13T17:13:54;28.60;54.60
13488;DHT22;6816;48.506;9.050;2023-07-13T17:16:56;28.50;54.40
13488;DHT22;6816;48.506;9.050;2023-07-13T17:19:58;28.40;54.30
13488;DHT22;6816;48.506;9.050;2023-07-13T17:22:59;28.30;54.20
13488;DHT22;6816;48.506;9.050;2023-07-13T17:26:00;28.20;55.10
13488;DHT22;6816;48.506;9.050;2023-07-13T17:29:01;28.10;54.40
13488;DHT22;6816;48.506;9.050;2023-07-13T17:32:03;28.10;54.50
13488;DHT22;6816;48.506;9.050;2023-07-13T17:35:28;28.00;54.60
13488;DHT22;6816;48.506;9.050;2023-07-13T17:38:46;27.90;53.20
13488;DHT22;6816;48.506;9.050;2023-07-13T17:41:51;27.90;53.10
13488;DHT22;6816;48.506;9.050;2023-07-13T17:44:52;27.80;54.80
13488;DHT22;6816;48.506;9.050;2023-07-13T17:47:53;27.80;54.90
13488;DHT22;6816;48.506;9.050;2023-07-13T17:50:54;27.70;54.80
13488;DHT22;6816;48.506;9.050;2023-07-13T17:53:56;27.70;54.80
13488;DHT22;6816;48.506;9.050;2023-07-13T17:56:58;27.70;54.80
13488;DHT22;6816;48.506;9.050;2023-07-13T17:59:58;27.70;54.80
13488;DHT22;6816;48.506;9.050;2023-07-13T18:03:08;27.60;54.90
13488;DHT22;6816;48.506;9.050;2023-07-13T18:06:25;27.60;54.40
13488;DHT22;6816;48.506;9.050;2023-07-13T18:09:26;27.60;53.90
13488;DHT22;6816;48.506;9.050;2023-07-13T18:12:27;27.60;56.00
13488;DHT22;6816;48.506;9.050;2023-07-13T18:15:29;27.50;55.10
13488;DHT22;6816;48.506;9.050;2023-07-13T18:18:33;27.50;55.20
13488;DHT22;6816;48.506;9.050;2023-07-13T18:21:34;27.40;54.80
13488;DHT22;6816;48.506;9.050;2023-07-13T18:24:35;27.40;55.10
13488;DHT22;6816;48.506;9.050;2023-07-13T18:27:35;27.40;55.20
13488;DHT22;6816;48.506;9.050;2023-07-13T18:30:37;27.30;55.30
13488;DHT22;6816;48.506;9.050;2023-07-13T18:33:38;27.30;55.60
13488;DHT22;6816;48.506;9.050;2023-07-13T18:36:39;27.20;55.30
13488;DHT22;6816;48.506;9.050;2023-07-13T18:39:39;27.20;56.10
13488;DHT22;6816;48.506;9.050;2023-07-13T18:42:41;27.10;55.30
13488;DHT22;6816;48.506;9.050;2023-07-13T18:45:42;27.10;55.50
13488;DHT22;6816;48.506;9.050;2023-07-13T18:48:43;27.00;55.30
13488;DHT22;6816;48.506;9.050;2023-07-13T18:51:44;26.90;55.50
13488;DHT22;6816;48.506;9.050;2023-07-13T18:54:45;26.90;55.70
13488;DHT22;6816;48.506;9.050;2023-07-13T18:57:46;26.80;55.80
13488;DHT22;6816;48.506;9.050;2023-07-13T19:00:51;26.70;55.50
13488;DHT22;6816;48.506;9.050;2023-07-13T19:03:58;26.60;55.10
13488;DHT22;6816;48.506;9.050;2023-07-13T19:06:58;26.50;56.20
13488;DHT22;6816;48.506;9.050;2023-07-13T19:09:59;26.40;56.00
13488;DHT22;6816;48.506;9.050;2023-07-13T19:13:01;26.30;56.30
13488;DHT22;6816;48.506;9.050;2023-07-13T19:16:03;26.20;56.20
13488;DHT22;6816;48.506;9.050;2023-07-13T19:19:15;26.10;56.40
13488;DHT22;6816;48.506;9.050;2023-07-13T19:22:18;26.00;55.20
13488;DHT22;6816;48.506;9.050;2023-07-13T19:25:20;25.90;56.50
13488;DHT22;6816;48.506;9.050;2023-07-13T19:28:34;25.80;56.90
13488;DHT22;6816;48.506;9.050;2023-07-13T19:31:36;25.70;56.40
13488;DHT22;6816;48.506;9.050;2023-07-13T19:34:37;25.60;57.10
13488;DHT22;6816;48.506;9.050;2023-07-13T19:37:38;25.40;57.10
13488;DHT22;6816;48.506;9.050;2023-07-13T19:40:38;25.30;57.40
13488;DHT22;6816;48.506;9.050;2023-07-13T19:43:39;25.20;57.60
13488;DHT22;6816;48.506;9.050;2023-07-13T19:46:41;25.00;58.00
13488;DHT22;6816;48.506;9.050;2023-07-13T19:49:42;24.90;58.40
13488;DHT22;6816;48.506;9.050;2023-07-13T19:52:49;24.80;58.40
13488;DHT22;6816;48.506;9.050;2023-07-13T19:55:50;24.60;58.80
13488;DHT22;6816;48.506;9.050;2023-07-13T19:58:52;24.50;59.30
13488;DHT22;6816;48.506;9.050;2023-07-13T20:01:53;24.40;59.60
13488;DHT22;6816;48.506;9.050;2023-07-13T20:04:54;24.30;60.10